Time;durP1;ratioP1;P1;durP2;ratioP2;P2;SDS_P1;SDS_P2;PMS_P1;PMS_P2;Temp;Humidity;BMP_temperature;BMP_pressure;BME280_temperature;BME280_humidity;BME280_pressure;Samples;Min_cycle;Max_cycle;Signal;HPM_P1;HPM_P2
2022/01/31 00:01:58;;;;;;;;;217.50;169.00;;;;;;;;5127211;27;51050;-51
2022/01/31 00:04:43;;;;;;;;;212.75;159.00;;;;;;;;5123170;27;51173;-50
2022/01/31 00:07:34;;;;;;;;;216.75;162.50;;;;;;;;5123261;27;51091;-52
2022/01/31 00:10:27;;;;;;;;;200.25;143.25;;;;;;;;5125154;27;51118;-45
2022/01/31 00:13:17;;;;;;;;;179.50;138.00;;;;;;;;5136836;27;51000;-54
2022/01/31 00:16:04;;;;;;;;;171.25;138.75;;;;;;;;5143723;27;51164;-54
2022/01/31 00:18:50;;;;;;;;;170.75;133.50;;;;;;;;5128286;27;51147;-49
2022/01/31 00:21:37;;;;;;;;;183.50;139.75;;;;;;;;5129688;27;51052;-51
2022/01/31 00:24:22;;;;;;;;;210.25;162.50;;;;;;;;5121950;27;51014;-54
2022/01/31 00:27:08;;;;;;;;;219.50;158.25;;;;;;;;5129785;27;51456;-52
2022/01/31 00:29:52;;;;;;;;;211.25;164.00;;;;;;;;5135667;27;51164;-53
2022/01/31 00:32:38;;;;;;;;;176.25;145.25;;;;;;;;5143331;27;51160;-52
2022/01/31 00:35:26;;;;;;;;;178.75;135.75;;;;;;;;5136479;27;51157;-54
2022/01/31 00:38:12;;;;;;;;;165.50;125.75;;;;;;;;5143365;27;51028;-52
2022/01/31 00:41:04;;;;;;;;;157.50;131.75;;;;;;;;5133974;27;51239;-50
2022/01/31 00:44:16;;;;;;;;;156.00;119.75;;;;;;;;5118710;27;51120;-48
2022/01/31 00:47:17;;;;;;;;;167.75;118.75;;;;;;;;5122014;27;51054;-52
2022/01/31 00:50:11;;;;;;;;;151.00;114.50;;;;;;;;5131732;27;51009;-51
2022/01/31 00:53:12;;;;;;;;;134.50;106.25;;;;;;;;5126587;27;51391;-49
2022/01/31 00:55:56;;;;;;;;;137.50;107.75;;;;;;;;5128154;27;51112;-45
2022/01/31 00:58:51;;;;;;;;;145.00;107.75;;;;;;;;5142979;27;51289;-46
2022/01/31 01:01:39;;;;;;;;;124.00;97.25;;;;;;;;5142796;27;51038;-47
2022/01/31 01:04:24;;;;;;;;;134.00;103.75;;;;;;;;5126869;27;51348;-45
2022/01/31 01:07:08;;;;;;;;;130.00;99.50;;;;;;;;5140285;27;51141;-45
2022/01/31 01:09:54;;;;;;;;;135.00;100.75;;;;;;;;5131020;27;51214;-46
2022/01/31 01:12:43;;;;;;;;;134.25;101.50;;;;;;;;5138694;27;51134;-51
2022/01/31 01:15:28;;;;;;;;;132.75;98.50;;;;;;;;5143013;27;51027;-49
2022/01/31 01:18:14;;;;;;;;;116.25;89.75;;;;;;;;5142401;27;51488;-50
2022/01/31 01:20:58;;;;;;;;;149.75;108.25;;;;;;;;5134274;27;51118;-46
2022/01/31 01:23:43;;;;;;;;;145.50;108.75;;;;;;;;5139415;27;51055;-51
2022/01/31 01:26:28;;;;;;;;;146.25;117.00;;;;;;;;5128905;27;51050;-52
2022/01/31 01:29:14;;;;;;;;;146.25;112.00;;;;;;;;5134110;27;51134;-47
2022/01/31 01:32:12;;;;;;;;;125.00;106.25;;;;;;;;5123683;27;51153;-47
2022/01/31 01:35:01;;;;;;;;;135.25;104.25;;;;;;;;5142011;27;51079;-49
2022/01/31 01:37:47;;;;;;;;;158.00;124.25;;;;;;;;5134812;27;51381;-48
2022/01/31 01:40:33;;;;;;;;;158.50;129.50;;;;;;;;5128783;27;51016;-47
2022/01/31 01:43:42;;;;;;;;;170.25;129.25;;;;;;;;5141958;27;51141;-44
2022/01/31 01:46:26;;;;;;;;;156.00;125.75;;;;;;;;5141553;27;51081;-46
2022/01/31 01:49:35;;;;;;;;;171.00;136.00;;;;;;;;5138443;27;51421;-46
2022/01/31 01:52:26;;;;;;;;;161.50;116.50;;;;;;;;5122516;27;51174;-46
2022/01/31 01:55:22;;;;;;;;;162.25;135.00;;;;;;;;5134401;27;51385;-46
2022/01/31 01:58:18;;;;;;;;;174.75;131.75;;;;;;;;5140806;27;51157;-50
2022/01/31 02:01:06;;;;;;;;;171.50;132.50;;;;;;;;5121154;27;51089;-48
2022/01/31 02:03:53;;;;;;;;;168.75;138.50;;;;;;;;5133602;27;51153;-51
2022/01/31 02:06:37;;;;;;;;;192.25;154.75;;;;;;;;5141613;27;51093;-45
2022/01/31 02:09:25;;;;;;;;;194.50;151.00;;;;;;;;5141792;27;51500;-49
2022/01/31 02:12:11;;;;;;;;;174.00;136.50;;;;;;;;5120908;27;51176;-45
2022/01/31 02:14:58;;;;;;;;;180.50;143.25;;;;;;;;5140996;27;51234;-46
2022/01/31 02:17:43;;;;;;;;;175.50;150.25;;;;;;;;5141525;27;50992;-50
2022/01/31 02:20:27;;;;;;;;;179.75;140.00;;;;;;;;5138192;27;51141;-46
2022/01/31 02:23:17;;;;;;;;;178.75;143.75;;;;;;;;5120735;27;51034;-45
2022/01/31 02:26:07;;;;;;;;;187.25;140.50;;;;;;;;5128616;27;51254;-46
2022/01/31 02:29:00;;;;;;;;;178.75;130.50;;;;;;;;5120823;27;51149;-47
2022/01/31 02:31:45;;;;;;;;;176.00;139.75;;;;;;;;5121030;27;51079;-46
2022/01/31 02:34:30;;;;;;;;;170.00;136.25;;;;;;;;5138763;27;51130;-50
2022/01/31 02:37:16;;;;;;;;;163.50;128.25;;;;;;;;5120789;27;52061;-47
2022/01/31 02:40:05;;;;;;;;;173.50;141.50;;;;;;;;5123843;27;51139;-52
2022/01/31 02:42:55;;;;;;;;;166.25;131.75;;;;;;;;5130272;27;51119;-45
2022/01/31 02:45:46;;;;;;;;;167.00;130.50;;;;;;;;5140942;27;51524;-50
2022/01/31 02:48:34;;;;;;;;;167.50;125.00;;;;;;;;5144829;27;51165;-48
2022/01/31 02:51:24;;;;;;;;;158.25;122.00;;;;;;;;5129060;27;51466;-53
2022/01/31 02:54:10;;;;;;;;;147.25;113.50;;;;;;;;5131650;27;51099;-47
2022/01/31 02:57:03;;;;;;;;;160.25;127.25;;;;;;;;5126521;27;51359;-45
2022/01/31 02:59:49;;;;;;;;;152.00;117.50;;;;;;;;5124366;27;51371;-49
2022/01/31 03:02:34;;;;;;;;;156.25;117.00;;;;;;;;5142458;27;51152;-53
2022/01/31 03:05:22;;;;;;;;;135.25;113.25;;;;;;;;5145410;27;51420;-48
2022/01/31 03:08:06;;;;;;;;;159.25;128.50;;;;;;;;5145215;27;51150;-53
2022/01/31 03:10:51;;;;;;;;;167.25;127.00;;;;;;;;5144845;27;51452;-49
2022/01/31 03:13:40;;;;;;;;;159.25;129.25;;;;;;;;5134838;27;51109;-47
2022/01/31 03:16:41;;;;;;;;;146.75;110.75;;;;;;;;5129944;27;51247;-47
2022/01/31 03:19:28;;;;;;;;;148.75;113.50;;;;;;;;5138463;27;51084;-47
2022/01/31 03:22:13;;;;;;;;;154.25;120.75;;;;;;;;5124293;27;51029;-44
2022/01/31 03:25:00;;;;;;;;;176.25;137.75;;;;;;;;5123832;27;51555;-52
2022/01/31 03:27:47;;;;;;;;;147.00;127.50;;;;;;;;5124118;27;51013;-47
2022/01/31 03:30:32;;;;;;;;;155.50;120.50;;;;;;;;5138171;27;51161;-43
2022/01/31 03:33:17;;;;;;;;;166.25;129.75;;;;;;;;5129313;27;51222;-46
2022/01/31 03:36:09;;;;;;;;;169.25;120.75;;;;;;;;5127082;27;51582;-48
2022/01/31 03:38:53;;;;;;;;;166.00;124.00;;;;;;;;5144573;27;51087;-48
2022/01/31 03:41:38;;;;;;;;;162.25;130.50;;;;;;;;5144535;27;51189;-46
2022/01/31 03:44:26;;;;;;;;;156.00;124.25;;;;;;;;5135898;27;51222;-51
2022/01/31 03:47:11;;;;;;;;;153.25;122.25;;;;;;;;5133890;27;51266;-47
2022/01/31 03:50:03;;;;;;;;;158.50;121.50;;;;;;;;5134185;27;51588;-49
2022/01/31 03:52:53;;;;;;;;;151.75;116.50;;;;;;;;5135102;27;51226;-47
2022/01/31 03:55:44;;;;;;;;;153.00;112.00;;;;;;;;5139574;27;51143;-45
2022/01/31 03:58:47;;;;;;;;;131.00;103.75;;;;;;;;5123071;27;51079;-44
2022/01/31 04:01:32;;;;;;;;;153.25;110.50;;;;;;;;5120480;27;51152;-45
2022/01/31 04:04:23;;;;;;;;;140.50;105.25;;;;;;;;5125847;27;51204;-46
2022/01/31 04:07:08;;;;;;;;;115.25;111.00;;;;;;;;5124405;27;52150;-49
2022/01/31 04:09:53;;;;;;;;;144.00;113.25;;;;;;;;5141928;27;51078;-54
2022/01/31 04:12:38;;;;;;;;;148.75;112.25;;;;;;;;5127765;27;51032;-45
2022/01/31 04:15:25;;;;;;;;;130.25;111.50;;;;;;;;5139692;27;51368;-46
2022/01/31 04:18:11;;;;;;;;;150.25;111.25;;;;;;;;5131134;27;51117;-48
2022/01/31 04:21:02;;;;;;;;;132.25;101.25;;;;;;;;5119418;27;51411;-47
2022/01/31 04:23:47;;;;;;;;;148.00;110.25;;;;;;;;5144085;27;51038;-44
2022/01/31 04:26:44;;;;;;;;;143.75;113.00;;;;;;;;5143507;27;51169;-47
2022/01/31 04:29:31;;;;;;;;;145.25;114.75;;;;;;;;5143505;27;51090;-50
2022/01/31 04:32:19;;;;;;;;;147.00;110.00;;;;;;;;5143363;27;51285;-47
2022/01/31 04:35:04;;;;;;;;;151.50;116.75;;;;;;;;5096198;27;51029;-50
2022/01/31 04:37:51;;;;;;;;;159.50;128.50;;;;;;;;5102469;27;51088;-45
2022/01/31 04:40:41;;;;;;;;;173.75;138.25;;;;;;;;5102761;27;51289;-45
2022/01/31 04:43:27;;;;;;;;;156.50;113.00;;;;;;;;5101807;27;51086;-46
2022/01/31 04:46:12;;;;;;;;;155.75;121.75;;;;;;;;5102855;27;51170;-50
2022/01/31 04:48:57;;;;;;;;;147.75;119.25;;;;;;;;5103270;27;51065;-51
2022/01/31 04:51:52;;;;;;;;;164.00;122.75;;;;;;;;5101516;27;51072;-45
2022/01/31 04:54:36;;;;;;;;;174.00;141.00;;;;;;;;5102553;27;51127;-49
2022/01/31 04:57:21;;;;;;;;;166.75;125.25;;;;;;;;5101827;27;51128;-44
2022/01/31 05:00:11;;;;;;;;;143.75;115.25;;;;;;;;5101378;27;51041;-51
2022/01/31 05:03:23;;;;;;;;;138.50;112.50;;;;;;;;5101903;27;51088;-50
2022/01/31 05:06:12;;;;;;;;;118.50;89.50;;;;;;;;5101180;27;51049;-47
2022/01/31 05:08:57;;;;;;;;;151.50;118.00;;;;;;;;5100981;27;51078;-44
2022/01/31 05:11:45;;;;;;;;;139.00;108.00;;;;;;;;5101888;27;51258;-51
2022/01/31 05:14:30;;;;;;;;;143.50;112.50;;;;;;;;5102708;27;51151;-44
2022/01/31 05:17:33;;;;;;;;;146.50;106.25;;;;;;;;5103559;27;51096;-49
2022/01/31 05:20:24;;;;;;;;;142.75;106.50;;;;;;;;5101296;27;51201;-44
2022/01/31 05:23:13;;;;;;;;;145.75;109.50;;;;;;;;5094804;27;51140;-49
2022/01/31 05:26:01;;;;;;;;;151.50;114.00;;;;;;;;5083340;27;51350;-44
2022/01/31 05:28:52;;;;;;;;;146.00;117.00;;;;;;;;5096077;27;51209;-45
2022/01/31 05:31:58;;;;;;;;;137.25;105.25;;;;;;;;5089723;27;51072;-49
2022/01/31 05:34:47;;;;;;;;;139.50;107.75;;;;;;;;5122388;27;51272;-48
2022/01/31 05:37:37;;;;;;;;;126.75;106.00;;;;;;;;5129170;27;51230;-46
2022/01/31 05:40:23;;;;;;;;;138.00;103.50;;;;;;;;5127729;27;51143;-52
2022/01/31 05:43:09;;;;;;;;;147.00;108.25;;;;;;;;5140851;27;51146;-51
2022/01/31 05:45:53;;;;;;;;;136.25;108.50;;;;;;;;5134339;27;51099;-51
2022/01/31 05:48:38;;;;;;;;;145.50;113.00;;;;;;;;5137000;27;51274;-47
2022/01/31 05:51:24;;;;;;;;;130.75;105.25;;;;;;;;5123902;27;51146;-48
2022/01/31 05:54:09;;;;;;;;;118.75;87.00;;;;;;;;5126227;27;51222;-51
2022/01/31 05:56:55;;;;;;;;;163.50;126.75;;;;;;;;5124222;27;51153;-47
2022/01/31 05:59:41;;;;;;;;;143.75;122.75;;;;;;;;5123594;27;51108;-46
2022/01/31 06:02:25;;;;;;;;;162.75;128.50;;;;;;;;5131977;27;51154;-46
2022/01/31 06:05:17;;;;;;;;;183.50;136.00;;;;;;;;5128115;27;51126;-48
2022/01/31 06:08:04;;;;;;;;;155.25;124.00;;;;;;;;5127345;27;51138;-48
2022/01/31 06:10:52;;;;;;;;;169.00;133.25;;;;;;;;5126128;27;51192;-49
2022/01/31 06:13:44;;;;;;;;;180.25;138.75;;;;;;;;5128411;27;51172;-51
2022/01/31 06:16:29;;;;;;;;;169.00;128.25;;;;;;;;5127750;27;51184;-50
2022/01/31 06:19:36;;;;;;;;;166.00;123.50;;;;;;;;5125383;27;51058;-45
2022/01/31 06:22:21;;;;;;;;;178.50;133.00;;;;;;;;5130331;27;52584;-48
2022/01/31 06:25:09;;;;;;;;;144.00;117.00;;;;;;;;5128400;27;51091;-44
2022/01/31 06:27:53;;;;;;;;;151.50;124.25;;;;;;;;5121694;27;51168;-49
2022/01/31 06:30:39;;;;;;;;;158.00;132.00;;;;;;;;5128180;27;51023;-52
2022/01/31 06:33:24;;;;;;;;;171.75;130.00;;;;;;;;5128764;27;51444;-50
2022/01/31 06:36:13;;;;;;;;;155.25;113.25;;;;;;;;5126762;27;51228;-49
2022/01/31 06:39:09;;;;;;;;;166.50;130.50;;;;;;;;5122221;27;51418;-51
2022/01/31 06:42:02;;;;;;;;;161.25;122.75;;;;;;;;5135097;27;51672;-50
2022/01/31 06:44:53;;;;;;;;;160.75;128.75;;;;;;;;5132004;27;51169;-48
2022/01/31 06:47:43;;;;;;;;;164.75;132.75;;;;;;;;5123645;27;51332;-47
2022/01/31 06:50:30;;;;;;;;;166.00;135.25;;;;;;;;5122003;27;52418;-48
2022/01/31 06:53:16;;;;;;;;;164.00;132.00;;;;;;;;5121410;27;51273;-46
2022/01/31 06:56:03;;;;;;;;;181.75;139.00;;;;;;;;5124687;27;51104;-47
2022/01/31 06:58:47;;;;;;;;;155.50;125.50;;;;;;;;5126212;27;51156;-47
2022/01/31 07:01:31;;;;;;;;;161.25;126.00;;;;;;;;5122085;27;51156;-52
2022/01/31 07:04:28;;;;;;;;;160.00;135.25;;;;;;;;5137183;27;51172;-51
2022/01/31 07:07:12;;;;;;;;;170.50;138.75;;;;;;;;5137891;27;51088;-46
2022/01/31 07:10:02;;;;;;;;;165.00;130.75;;;;;;;;5141127;27;51192;-49
2022/01/31 07:12:52;;;;;;;;;172.00;135.25;;;;;;;;5124726;27;51084;-50
2022/01/31 07:15:37;;;;;;;;;165.75;135.75;;;;;;;;5119733;27;51150;-49
2022/01/31 07:18:37;;;;;;;;;176.75;132.25;;;;;;;;5129938;27;51169;-47
2022/01/31 07:21:34;;;;;;;;;184.00;147.75;;;;;;;;5136074;27;51142;-46
2022/01/31 07:24:44;;;;;;;;;178.50;142.75;;;;;;;;5140820;27;51157;-45
2022/01/31 07:27:29;;;;;;;;;183.50;146.00;;;;;;;;5134267;27;51181;-47
2022/01/31 07:30:13;;;;;;;;;179.50;142.25;;;;;;;;5130481;27;51196;-47
2022/01/31 07:32:58;;;;;;;;;182.25;139.25;;;;;;;;5120277;27;51092;-53
2022/01/31 07:35:43;;;;;;;;;173.75;135.50;;;;;;;;5133286;27;51222;-49
2022/01/31 07:38:30;;;;;;;;;156.50;128.00;;;;;;;;5124721;27;51426;-46
2022/01/31 07:41:14;;;;;;;;;156.00;124.00;;;;;;;;5123684;27;51114;-53
2022/01/31 07:43:59;;;;;;;;;167.00;133.75;;;;;;;;5133082;27;51240;-52
2022/01/31 07:46:49;;;;;;;;;152.50;122.25;;;;;;;;5129527;27;51205;-48
2022/01/31 07:49:35;;;;;;;;;165.25;130.50;;;;;;;;5126002;27;51459;-53
2022/01/31 07:52:24;;;;;;;;;147.50;121.50;;;;;;;;5130869;27;51385;-50
2022/01/31 07:55:10;;;;;;;;;153.00;125.00;;;;;;;;5132214;27;51104;-47
2022/01/31 07:58:03;;;;;;;;;146.50;116.00;;;;;;;;5120327;27;51206;-48
2022/01/31 08:00:47;;;;;;;;;146.50;118.50;;;;;;;;5129547;27;51062;-48
2022/01/31 08:03:33;;;;;;;;;162.50;120.25;;;;;;;;5127145;27;51187;-46
2022/01/31 08:06:19;;;;;;;;;144.75;118.25;;;;;;;;5127915;27;51513;-51
2022/01/31 08:09:06;;;;;;;;;134.75;111.75;;;;;;;;5129954;27;51184;-49
2022/01/31 08:11:52;;;;;;;;;142.75;114.75;;;;;;;;5142562;27;51194;-48
2022/01/31 08:14:37;;;;;;;;;146.75;119.75;;;;;;;;5132156;27;51141;-48
2022/01/31 08:17:22;;;;;;;;;140.75;114.75;;;;;;;;5129555;27;51181;-46
2022/01/31 08:20:14;;;;;;;;;135.75;107.50;;;;;;;;5131168;27;51539;-52
2022/01/31 08:22:58;;;;;;;;;139.00;111.00;;;;;;;;5125911;27;51111;-50
2022/01/31 08:25:47;;;;;;;;;137.25;110.50;;;;;;;;5121832;27;51225;-46
2022/01/31 08:28:54;;;;;;;;;135.50;112.50;;;;;;;;5122078;27;51484;-50
2022/01/31 08:31:46;;;;;;;;;132.25;105.50;;;;;;;;5130997;27;51411;-55
2022/01/31 08:37:38;;;;;;;;;122.25;96.75;;;;;;;;5121261;27;51251;-47
2022/01/31 08:40:25;;;;;;;;;141.75;113.50;;;;;;;;5122862;27;51522;-52
2022/01/31 08:43:12;;;;;;;;;142.75;122.25;;;;;;;;5121930;27;51119;-46
2022/01/31 08:45:58;;;;;;;;;148.50;117.25;;;;;;;;5132560;27;51254;-51
2022/01/31 08:48:43;;;;;;;;;140.25;113.25;;;;;;;;5121994;27;51158;-52
2022/01/31 08:51:32;;;;;;;;;126.50;104.75;;;;;;;;5119064;27;51135;-52
2022/01/31 08:54:16;;;;;;;;;132.25;115.75;;;;;;;;5125222;27;51057;-48
2022/01/31 08:57:01;;;;;;;;;133.75;109.50;;;;;;;;5115487;27;51146;-52
2022/01/31 08:59:50;;;;;;;;;113.50;95.75;;;;;;;;5121259;27;51132;-48
2022/01/31 09:02:40;;;;;;;;;122.25;105.25;;;;;;;;5121970;27;51265;-50
2022/01/31 09:05:25;;;;;;;;;110.00;92.50;;;;;;;;5125777;27;51131;-48
2022/01/31 09:08:13;;;;;;;;;111.00;88.25;;;;;;;;5122256;27;51142;-47
2022/01/31 09:10:57;;;;;;;;;109.75;94.50;;;;;;;;5121935;27;51493;-48
2022/01/31 09:13:42;;;;;;;;;103.25;83.50;;;;;;;;5135869;27;51059;-48
2022/01/31 09:16:48;;;;;;;;;85.25;65.25;;;;;;;;5123409;27;51768;-47
2022/01/31 09:19:35;;;;;;;;;95.25;81.75;;;;;;;;5124738;27;51649;-49
2022/01/31 09:22:22;;;;;;;;;99.75;79.75;;;;;;;;5121944;27;51069;-56
2022/01/31 09:25:14;;;;;;;;;105.75;88.00;;;;;;;;5124163;27;51139;-46
2022/01/31 09:28:24;;;;;;;;;79.50;65.00;;;;;;;;5124328;27;51125;-45
2022/01/31 09:31:10;;;;;;;;;91.00;75.50;;;;;;;;5123010;27;51359;-48
2022/01/31 09:33:57;;;;;;;;;104.00;86.75;;;;;;;;5124705;27;51115;-50
2022/01/31 09:36:42;;;;;;;;;87.25;80.50;;;;;;;;5129322;27;51351;-45
2022/01/31 09:39:27;;;;;;;;;103.75;90.00;;;;;;;;5121268;27;51150;-47
2022/01/31 09:42:30;;;;;;;;;105.25;82.50;;;;;;;;5137942;27;51157;-46
2022/01/31 09:45:34;;;;;;;;;96.50;83.25;;;;;;;;5125255;27;51593;-44
2022/01/31 09:48:41;;;;;;;;;105.00;87.50;;;;;;;;5120732;27;51052;-45
2022/01/31 09:51:29;;;;;;;;;91.75;78.25;;;;;;;;5133546;27;51149;-46
2022/01/31 09:54:14;;;;;;;;;93.00;81.00;;;;;;;;5123044;27;50987;-47
2022/01/31 09:56:59;;;;;;;;;90.25;73.25;;;;;;;;5118676;27;51563;-44
2022/01/31 09:59:50;;;;;;;;;116.50;89.25;;;;;;;;5134541;27;51234;-47
2022/01/31 10:02:36;;;;;;;;;101.00;84.50;;;;;;;;5124030;27;51124;-46
2022/01/31 10:05:31;;;;;;;;;106.25;80.75;;;;;;;;5124162;27;51140;-48
2022/01/31 10:08:17;;;;;;;;;119.50;86.00;;;;;;;;5120793;27;51103;-45
2022/01/31 10:11:10;;;;;;;;;72.75;50.50;;;;;;;;5119600;27;51537;-48
2022/01/31 10:17:54;;;;;;;;;108.00;86.50;;;;;;;;5018469;28;51291;-47
2022/01/31 10:20:41;;;;;;;;;100.00;78.75;;;;;;;;5053636;27;51202;-44
2022/01/31 10:23:39;;;;;;;;;95.50;75.50;;;;;;;;5120217;27;51103;-45
2022/01/31 10:26:49;;;;;;;;;91.25;72.50;;;;;;;;5119827;27;51216;-46
2022/01/31 10:29:34;;;;;;;;;108.50;84.25;;;;;;;;5120444;27;51186;-45
2022/01/31 10:32:26;;;;;;;;;95.75;78.75;;;;;;;;5136760;27;51061;-45
2022/01/31 10:35:14;;;;;;;;;106.00;87.00;;;;;;;;5123148;27;51107;-46
2022/01/31 10:38:04;;;;;;;;;102.75;88.50;;;;;;;;5129858;27;51112;-42
2022/01/31 10:45:09;;;;;;;;;112.00;92.50;;;;;;;;5124489;27;51244;-45
2022/01/31 10:53:26;;;;;;;;;99.75;81.25;;;;;;;;5123448;27;51112;-44
2022/01/31 10:56:11;;;;;;;;;92.00;72.50;;;;;;;;5121005;27;51501;-44
2022/01/31 10:59:05;;;;;;;;;103.00;82.75;;;;;;;;5119629;27;51239;-43
2022/01/31 11:01:50;;;;;;;;;99.50;79.25;;;;;;;;5120520;27;50998;-48
2022/01/31 11:04:41;;;;;;;;;96.25;75.00;;;;;;;;5123575;27;51385;-43
2022/01/31 11:07:31;;;;;;;;;96.50;77.00;;;;;;;;5135191;27;51243;-43
2022/01/31 11:10:26;;;;;;;;;90.00;70.75;;;;;;;;5134345;27;51143;-45
2022/01/31 11:13:21;;;;;;;;;78.75;70.00;;;;;;;;5126221;27;51072;-45
2022/01/31 11:16:30;;;;;;;;;94.00;74.50;;;;;;;;5134008;27;51578;-45
2022/01/31 11:19:23;;;;;;;;;102.00;75.00;;;;;;;;5141698;27;51203;-44
2022/01/31 11:22:27;;;;;;;;;97.00;76.75;;;;;;;;5126405;27;51280;-44
2022/01/31 11:25:22;;;;;;;;;95.50;75.75;;;;;;;;5135697;27;51151;-42
2022/01/31 11:28:09;;;;;;;;;95.00;78.25;;;;;;;;5138834;27;51204;-44
2022/01/31 11:30:54;;;;;;;;;105.00;76.50;;;;;;;;5129148;27;51135;-46
2022/01/31 11:33:39;;;;;;;;;84.00;66.50;;;;;;;;5129104;27;51218;-42
2022/01/31 11:36:26;;;;;;;;;104.00;80.00;;;;;;;;5138363;27;51616;-43
2022/01/31 11:39:17;;;;;;;;;88.00;72.50;;;;;;;;5134431;27;51176;-45
2022/01/31 11:42:13;;;;;;;;;95.00;74.00;;;;;;;;5130051;27;51178;-44
2022/01/31 11:48:29;;;;;;;;;118.50;87.50;;;;;;;;5139747;27;51476;-44
2022/01/31 11:51:13;;;;;;;;;95.75;76.75;;;;;;;;5111812;27;51665;-47
2022/01/31 11:54:07;;;;;;;;;95.75;78.00;;;;;;;;5128465;27;51172;-44
2022/01/31 11:56:54;;;;;;;;;100.50;79.50;;;;;;;;5120598;27;51042;-46
2022/01/31 11:59:40;;;;;;;;;102.50;82.00;;;;;;;;5130897;27;51576;-43
2022/01/31 12:02:26;;;;;;;;;102.75;74.50;;;;;;;;5143850;27;51164;-43
2022/01/31 12:05:12;;;;;;;;;99.75;78.25;;;;;;;;5138825;27;51256;-45
2022/01/31 12:08:03;;;;;;;;;86.00;70.50;;;;;;;;5142549;27;51468;-44
2022/01/31 12:11:07;;;;;;;;;97.00;72.75;;;;;;;;5134075;27;51131;-46
2022/01/31 12:14:09;;;;;;;;;93.75;70.25;;;;;;;;5140332;27;51409;-46
2022/01/31 12:17:33;;;;;;;;;88.75;75.25;;;;;;;;5127970;27;52688;-44
2022/01/31 12:21:52;;;;;;;;;88.75;75.00;;;;;;;;5122171;27;51423;-44
2022/01/31 12:23:41;;;;;;;;;102.50;78.50;;;;;;;;5123557;27;51128;-47
2022/01/31 12:26:44;;;;;;;;;100.00;75.00;;;;;;;;5123325;27;51555;-44
2022/01/31 12:29:30;;;;;;;;;93.75;82.00;;;;;;;;5122722;27;51039;-44
2022/01/31 12:32:26;;;;;;;;;93.25;76.50;;;;;;;;5129255;27;51130;-47
2022/01/31 12:35:14;;;;;;;;;85.00;73.50;;;;;;;;5136281;27;51288;-44
2022/01/31 12:38:00;;;;;;;;;102.00;89.25;;;;;;;;5123464;27;51250;-44
2022/01/31 12:40:57;;;;;;;;;96.75;80.25;;;;;;;;5115224;27;51246;-44
2022/01/31 12:44:08;;;;;;;;;115.50;85.25;;;;;;;;5128109;27;51194;-44
2022/01/31 12:46:53;;;;;;;;;106.75;86.25;;;;;;;;5131157;27;51115;-43
2022/01/31 12:49:41;;;;;;;;;113.75;87.50;;;;;;;;5134877;27;51174;-44
2022/01/31 12:52:36;;;;;;;;;119.00;93.25;;;;;;;;5141018;27;51205;-43
2022/01/31 12:55:27;;;;;;;;;121.25;92.25;;;;;;;;5139656;27;51336;-44
2022/01/31 12:58:14;;;;;;;;;102.50;82.00;;;;;;;;5143092;27;51162;-42
2022/01/31 13:01:10;;;;;;;;;103.75;91.00;;;;;;;;5136039;27;51112;-45
2022/01/31 13:03:54;;;;;;;;;93.25;90.25;;;;;;;;5134009;27;51139;-46
2022/01/31 13:06:55;;;;;;;;;110.00;98.00;;;;;;;;5121923;27;51051;-43
2022/01/31 13:09:45;;;;;;;;;116.25;93.75;;;;;;;;5140540;27;51095;-44
2022/01/31 13:12:42;;;;;;;;;118.50;96.00;;;;;;;;5124733;27;51096;-46
2022/01/31 13:15:28;;;;;;;;;97.00;76.50;;;;;;;;5121767;27;51124;-44
2022/01/31 13:18:13;;;;;;;;;119.50;94.25;;;;;;;;5114881;27;51131;-44
2022/01/31 13:21:06;;;;;;;;;124.50;104.50;;;;;;;;5121875;27;51053;-48
2022/01/31 13:23:56;;;;;;;;;116.25;91.75;;;;;;;;5110035;27;52040;-45
2022/01/31 13:26:53;;;;;;;;;121.00;103.00;;;;;;;;5123612;27;51434;-47
2022/01/31 13:29:44;;;;;;;;;126.75;101.75;;;;;;;;5121314;27;51080;-44
2022/01/31 13:32:30;;;;;;;;;104.00;78.25;;;;;;;;5124231;27;51062;-45
2022/01/31 13:35:37;;;;;;;;;107.75;90.25;;;;;;;;5124270;27;51048;-45
2022/01/31 13:38:41;;;;;;;;;122.25;105.75;;;;;;;;5123779;27;51113;-42
2022/01/31 13:41:33;;;;;;;;;143.00;112.25;;;;;;;;5138206;27;51022;-44
2022/01/31 13:44:21;;;;;;;;;121.75;102.25;;;;;;;;5134218;27;52262;-44
2022/01/31 13:47:12;;;;;;;;;131.50;109.25;;;;;;;;5132627;27;51054;-43
2022/01/31 13:50:12;;;;;;;;;132.75;118.00;;;;;;;;5139199;27;51029;-43
2022/01/31 13:53:28;;;;;;;;;144.00;120.75;;;;;;;;5123722;27;51191;-43
2022/01/31 13:56:13;;;;;;;;;134.50;116.25;;;;;;;;5120269;27;51045;-45
2022/01/31 13:59:00;;;;;;;;;157.00;118.50;;;;;;;;5127547;27;51208;-46
2022/01/31 14:01:48;;;;;;;;;129.75;118.00;;;;;;;;5136745;27;51102;-44
2022/01/31 14:04:40;;;;;;;;;140.50;121.75;;;;;;;;5140903;27;51541;-43
2022/01/31 14:07:37;;;;;;;;;146.50;123.75;;;;;;;;5140869;27;51244;-44
2022/01/31 14:10:31;;;;;;;;;156.50;128.25;;;;;;;;5140567;27;51145;-46
2022/01/31 14:13:18;;;;;;;;;138.00;109.75;;;;;;;;5120212;27;51582;-45
2022/01/31 14:16:11;;;;;;;;;133.75;108.75;;;;;;;;5122077;27;51143;-44
2022/01/31 14:19:01;;;;;;;;;139.75;112.50;;;;;;;;5140270;27;51142;-43
2022/01/31 14:21:46;;;;;;;;;141.50;115.75;;;;;;;;5137245;27;52085;-44
2022/01/31 14:24:30;;;;;;;;;140.50;115.50;;;;;;;;5119944;27;51260;-47
2022/01/31 14:27:22;;;;;;;;;128.75;101.00;;;;;;;;5129541;27;51148;-46
2022/01/31 14:30:15;;;;;;;;;119.00;94.75;;;;;;;;5133265;27;51463;-44
2022/01/31 14:33:11;;;;;;;;;131.75;104.50;;;;;;;;5104051;27;51075;-43
2022/01/31 14:36:07;;;;;;;;;139.50;111.25;;;;;;;;5122308;27;51018;-44
2022/01/31 14:43:09;;;;;;;;;145.00;113.50;;;;;;;;5053204;27;50977;-44
2022/01/31 14:49:07;;;;;;;;;132.75;103.75;;;;;;;;5056824;28;51204;-43
2022/01/31 14:52:01;;;;;;;;;128.50;106.00;;;;;;;;5056920;28;51248;-44
2022/01/31 14:55:00;;;;;;;;;131.75;108.75;;;;;;;;5058040;27;51549;-43
2022/01/31 14:57:52;;;;;;;;;120.25;100.00;;;;;;;;5056891;28;51355;-44
2022/01/31 15:00:38;;;;;;;;;135.00;113.50;;;;;;;;4989669;27;51658;-44
2022/01/31 15:03:33;;;;;;;;;135.75;109.75;;;;;;;;5106719;27;51211;-47
2022/01/31 15:06:23;;;;;;;;;117.25;97.00;;;;;;;;5103841;27;51232;-46
2022/01/31 15:09:15;;;;;;;;;92.00;66.25;;;;;;;;5104165;27;51170;-44
2022/01/31 15:12:01;;;;;;;;;135.75;115.00;;;;;;;;5118142;27;51536;-46
2022/01/31 15:14:48;;;;;;;;;129.75;112.00;;;;;;;;5102718;27;51178;-43
2022/01/31 15:17:33;;;;;;;;;132.25;107.75;;;;;;;;5112954;27;51171;-43
2022/01/31 15:20:19;;;;;;;;;110.25;87.25;;;;;;;;5123740;27;51119;-43
2022/01/31 15:23:04;;;;;;;;;124.00;102.00;;;;;;;;5115695;27;51141;-43
2022/01/31 15:25:48;;;;;;;;;128.00;106.00;;;;;;;;5110642;27;51171;-44
2022/01/31 15:28:34;;;;;;;;;122.75;110.50;;;;;;;;5103124;27;51096;-43
2022/01/31 15:31:21;;;;;;;;;131.25;108.75;;;;;;;;5112569;27;51630;-43
2022/01/31 15:34:09;;;;;;;;;124.75;107.25;;;;;;;;5107621;27;52812;-43
2022/01/31 15:36:57;;;;;;;;;115.25;101.75;;;;;;;;5114216;27;51356;-46
2022/01/31 15:39:43;;;;;;;;;128.25;101.50;;;;;;;;5103509;27;51051;-46
2022/01/31 15:42:30;;;;;;;;;138.50;112.75;;;;;;;;5102329;27;51214;-43
2022/01/31 15:45:22;;;;;;;;;123.50;96.25;;;;;;;;5107846;27;51112;-43
2022/01/31 15:48:07;;;;;;;;;128.75;100.75;;;;;;;;5101975;27;51490;-43
2022/01/31 15:50:53;;;;;;;;;130.00;103.00;;;;;;;;5102396;27;51078;-42
2022/01/31 15:53:38;;;;;;;;;123.25;102.75;;;;;;;;5091105;27;51101;-43
2022/01/31 15:56:34;;;;;;;;;126.50;100.00;;;;;;;;5101890;27;51367;-43
2022/01/31 15:59:19;;;;;;;;;134.75;98.50;;;;;;;;5111232;27;51921;-42
2022/01/31 16:02:09;;;;;;;;;127.75;104.25;;;;;;;;5101992;27;51453;-44
2022/01/31 16:04:54;;;;;;;;;117.50;100.50;;;;;;;;5115498;27;51074;-43
2022/01/31 16:07:38;;;;;;;;;121.25;97.75;;;;;;;;5104687;27;51356;-44
2022/01/31 16:10:24;;;;;;;;;130.00;104.00;;;;;;;;5102232;27;51091;-44
2022/01/31 16:13:20;;;;;;;;;119.25;100.75;;;;;;;;5101074;27;51128;-44
2022/01/31 16:16:06;;;;;;;;;122.00;94.25;;;;;;;;5119488;27;51130;-44
2022/01/31 16:18:50;;;;;;;;;112.25;89.75;;;;;;;;5123026;27;51262;-45
2022/01/31 16:21:36;;;;;;;;;119.00;90.00;;;;;;;;5112840;27;51163;-43
2022/01/31 16:24:25;;;;;;;;;113.50;93.00;;;;;;;;5102083;27;51144;-44
2022/01/31 16:27:11;;;;;;;;;101.25;91.75;;;;;;;;5101753;27;51488;-42
2022/01/31 16:30:14;;;;;;;;;112.75;94.75;;;;;;;;5117831;27;51135;-42
2022/01/31 16:32:58;;;;;;;;;119.50;96.50;;;;;;;;5110281;27;51172;-43
2022/01/31 16:35:43;;;;;;;;;130.75;106.75;;;;;;;;5118660;27;51114;-44